sensor_id;sensor_type;location;lat;lon;timestamp;P1;durP1;ratioP1;P2;durP2;ratioP2
10947;SDS011;5526;42.070;24.752;2023-07-02T00:02:16;6.85;;;6.20;;
10947;SDS011;5526;42.070;24.752;2023-07-02T00:04:44;6.53;;;5.93;;
10947;SDS011;5526;42.070;24.752;2023-07-02T00:07:11;6.45;;;5.85;;
10947;SDS011;5526;42.070;24.752;2023-07-02T00:09:39;6.35;;;5.75;;
10947;SDS011;5526;42.070;24.752;2023-07-02T00:12:07;5.70;;;5.30;;
10947;SDS011;5526;42.070;24.752;2023-07-02T00:14:35;7.43;;;6.10;;
10947;SDS011;5526;42.070;24.752;2023-07-02T00:17:02;6.88;;;5.57;;
10947;SDS011;5526;42.070;24.752;2023-07-02T00:19:31;6.22;;;5.72;;
10947;SDS011;5526;42.070;24.752;2023-07-02T00:21:58;6.45;;;5.85;;
10947;SDS011;5526;42.070;24.752;2023-07-02T00:24:25;6.03;;;5.20;;
10947;SDS011;5526;42.070;24.752;2023-07-02T00:26:53;6.57;;;5.95;;
10947;SDS011;5526;42.070;24.752;2023-07-02T00:29:20;7.03;;;5.70;;
10947;SDS011;5526;42.070;24.752;2023-07-02T00:31:47;6.53;;;5.93;;
10947;SDS011;5526;42.070;24.752;2023-07-02T00:34:14;6.90;;;6.13;;
10947;SDS011;5526;42.070;24.752;2023-07-02T00:36:43;6.47;;;5.88;;
10947;SDS011;5526;42.070;24.752;2023-07-02T00:39:10;6.40;;;5.70;;
10947;SDS011;5526;42.070;24.752;2023-07-02T00:41:37;6.75;;;5.68;;
10947;SDS011;5526;42.070;24.752;2023-07-02T00:44:05;6.30;;;5.65;;
10947;SDS011;5526;42.070;24.752;2023-07-02T00:46:32;7.45;;;6.65;;
10947;SDS011;5526;42.070;24.752;2023-07-02T00:48:59;6.18;;;5.57;;
10947;SDS011;5526;42.070;24.752;2023-07-02T00:51:30;6.35;;;5.70;;
10947;SDS011;5526;42.070;24.752;2023-07-02T00:53:59;5.95;;;5.22;;
10947;SDS011;5526;42.070;24.752;2023-07-02T00:56:26;5.50;;;5.00;;
10947;SDS011;5526;42.070;24.752;2023-07-02T00:58:54;5.85;;;5.35;;
10947;SDS011;5526;42.070;24.752;2023-07-02T01:01:24;7.25;;;5.50;;
10947;SDS011;5526;42.070;24.752;2023-07-02T01:03:53;6.38;;;5.78;;
10947;SDS011;5526;42.070;24.752;2023-07-02T01:06:25;6.68;;;5.30;;
10947;SDS011;5526;42.070;24.752;2023-07-02T01:08:55;6.22;;;5.63;;
10947;SDS011;5526;42.070;24.752;2023-07-02T01:11:27;5.85;;;5.28;;
10947;SDS011;5526;42.070;24.752;2023-07-02T01:13:59;6.32;;;5.63;;
10947;SDS011;5526;42.070;24.752;2023-07-02T01:16:30;6.65;;;5.88;;
10947;SDS011;5526;42.070;24.752;2023-07-02T01:18:58;7.15;;;6.32;;
10947;SDS011;5526;42.070;24.752;2023-07-02T01:21:30;7.15;;;6.45;;
10947;SDS011;5526;42.070;24.752;2023-07-02T01:23:58;6.80;;;5.88;;
10947;SDS011;5526;42.070;24.752;2023-07-02T01:26:28;6.80;;;6.18;;
10947;SDS011;5526;42.070;24.752;2023-07-02T01:28:59;7.10;;;6.50;;
10947;SDS011;5526;42.070;24.752;2023-07-02T01:31:26;7.18;;;6.47;;
10947;SDS011;5526;42.070;24.752;2023-07-02T01:33:53;7.55;;;6.75;;
10947;SDS011;5526;42.070;24.752;2023-07-02T01:36:20;7.03;;;6.35;;
10947;SDS011;5526;42.070;24.752;2023-07-02T01:38:49;6.55;;;6.00;;
10947;SDS011;5526;42.070;24.752;2023-07-02T01:41:16;7.05;;;6.35;;
10947;SDS011;5526;42.070;24.752;2023-07-02T01:43:43;6.35;;;5.75;;
10947;SDS011;5526;42.070;24.752;2023-07-02T01:46:10;7.28;;;5.82;;
10947;SDS011;5526;42.070;24.752;2023-07-02T01:48:37;7.28;;;5.93;;
10947;SDS011;5526;42.070;24.752;2023-07-02T01:51:04;6.60;;;6.00;;
10947;SDS011;5526;42.070;24.752;2023-07-02T01:53:31;6.85;;;6.15;;
10947;SDS011;5526;42.070;24.752;2023-07-02T01:55:59;6.72;;;5.68;;
10947;SDS011;5526;42.070;24.752;2023-07-02T01:58:26;6.63;;;5.93;;
10947;SDS011;5526;42.070;24.752;2023-07-02T02:00:53;6.45;;;5.57;;
10947;SDS011;5526;42.070;24.752;2023-07-02T02:03:21;7.00;;;6.40;;
10947;SDS011;5526;42.070;24.752;2023-07-02T02:05:48;7.40;;;6.05;;
10947;SDS011;5526;42.070;24.752;2023-07-02T02:08:15;6.82;;;5.90;;
10947;SDS011;5526;42.070;24.752;2023-07-02T02:10:42;6.30;;;5.80;;
10947;SDS011;5526;42.070;24.752;2023-07-02T02:13:11;6.22;;;5.63;;
10947;SDS011;5526;42.070;24.752;2023-07-02T02:15:38;7.82;;;6.07;;
10947;SDS011;5526;42.070;24.752;2023-07-02T02:18:06;7.20;;;6.50;;
10947;SDS011;5526;42.070;24.752;2023-07-02T02:20:33;6.88;;;6.28;;
10947;SDS011;5526;42.070;24.752;2023-07-02T02:23:00;6.95;;;6.20;;
10947;SDS011;5526;42.070;24.752;2023-07-02T02:25:27;7.10;;;6.45;;
10947;SDS011;5526;42.070;24.752;2023-07-02T02:27:54;6.93;;;5.90;;
10947;SDS011;5526;42.070;24.752;2023-07-02T02:30:23;7.00;;;6.38;;
10947;SDS011;5526;42.070;24.752;2023-07-02T02:32:50;7.65;;;5.82;;
10947;SDS011;5526;42.070;24.752;2023-07-02T02:35:17;8.85;;;6.60;;
10947;SDS011;5526;42.070;24.752;2023-07-02T02:37:44;6.53;;;5.93;;
10947;SDS011;5526;42.070;24.752;2023-07-02T02:40:11;7.82;;;6.22;;
10947;SDS011;5526;42.070;24.752;2023-07-02T02:42:39;6.70;;;6.00;;
10947;SDS011;5526;42.070;24.752;2023-07-02T02:45:06;7.10;;;6.40;;
10947;SDS011;5526;42.070;24.752;2023-07-02T02:47:35;6.97;;;5.68;;
10947;SDS011;5526;42.070;24.752;2023-07-02T02:50:03;7.28;;;6.05;;
10947;SDS011;5526;42.070;24.752;2023-07-02T02:52:30;6.53;;;5.93;;
10947;SDS011;5526;42.070;24.752;2023-07-02T02:54:57;8.35;;;6.25;;
10947;SDS011;5526;42.070;24.752;2023-07-02T02:57:24;8.98;;;6.38;;
10947;SDS011;5526;42.070;24.752;2023-07-02T02:59:51;6.57;;;5.97;;
10947;SDS011;5526;42.070;24.752;2023-07-02T03:02:18;6.63;;;6.03;;
10947;SDS011;5526;42.070;24.752;2023-07-02T03:04:46;8.05;;;6.25;;
10947;SDS011;5526;42.070;24.752;2023-07-02T03:07:14;6.63;;;6.03;;
10947;SDS011;5526;42.070;24.752;2023-07-02T03:09:41;7.40;;;6.15;;
10947;SDS011;5526;42.070;24.752;2023-07-02T03:12:08;6.97;;;6.18;;
10947;SDS011;5526;42.070;24.752;2023-07-02T03:14:36;7.03;;;6.40;;
10947;SDS011;5526;42.070;24.752;2023-07-02T03:17:03;9.00;;;6.90;;
10947;SDS011;5526;42.070;24.752;2023-07-02T03:19:30;7.95;;;7.15;;
10947;SDS011;5526;42.070;24.752;2023-07-02T03:21:59;7.45;;;6.75;;
10947;SDS011;5526;42.070;24.752;2023-07-02T03:24:26;6.95;;;6.30;;
10947;SDS011;5526;42.070;24.752;2023-07-02T03:26:53;8.10;;;7.30;;
10947;SDS011;5526;42.070;24.752;2023-07-02T03:29:20;7.35;;;6.75;;
10947;SDS011;5526;42.070;24.752;2023-07-02T03:31:47;7.63;;;6.93;;
10947;SDS011;5526;42.070;24.752;2023-07-02T03:34:14;8.52;;;7.35;;
10947;SDS011;5526;42.070;24.752;2023-07-02T03:36:41;7.53;;;6.80;;
10947;SDS011;5526;42.070;24.752;2023-07-02T03:39:10;8.38;;;7.57;;
10947;SDS011;5526;42.070;24.752;2023-07-02T03:41:37;8.32;;;7.55;;
10947;SDS011;5526;42.070;24.752;2023-07-02T03:44:04;9.07;;;8.27;;
10947;SDS011;5526;42.070;24.752;2023-07-02T03:46:31;10.05;;;7.82;;
10947;SDS011;5526;42.070;24.752;2023-07-02T03:48:58;9.95;;;7.95;;
10947;SDS011;5526;42.070;24.752;2023-07-02T03:51:25;9.95;;;8.32;;
10947;SDS011;5526;42.070;24.752;2023-07-02T03:53:53;8.75;;;7.85;;
10947;SDS011;5526;42.070;24.752;2023-07-02T03:56:21;8.43;;;7.63;;
10947;SDS011;5526;42.070;24.752;2023-07-02T03:58:48;10.13;;;8.57;;
10947;SDS011;5526;42.070;24.752;2023-07-02T04:01:15;8.25;;;7.45;;
10947;SDS011;5526;42.070;24.752;2023-07-02T04:03:47;8.20;;;7.50;;
10947;SDS011;5526;42.070;24.752;2023-07-02T04:06:15;9.95;;;8.20;;
10947;SDS011;5526;42.070;24.752;2023-07-02T04:08:42;8.88;;;7.80;;
10947;SDS011;5526;42.070;24.752;2023-07-02T04:11:10;9.45;;;8.45;;
10947;SDS011;5526;42.070;24.752;2023-07-02T04:13:39;9.80;;;7.70;;
10947;SDS011;5526;42.070;24.752;2023-07-02T04:16:06;9.23;;;8.32;;
10947;SDS011;5526;42.070;24.752;2023-07-02T04:18:33;9.10;;;8.20;;
10947;SDS011;5526;42.070;24.752;2023-07-02T04:21:00;9.82;;;8.82;;
10947;SDS011;5526;42.070;24.752;2023-07-02T04:23:28;11.18;;;8.35;;
10947;SDS011;5526;42.070;24.752;2023-07-02T04:25:55;10.27;;;9.27;;
10947;SDS011;5526;42.070;24.752;2023-07-02T04:28:22;10.32;;;9.32;;
10947;SDS011;5526;42.070;24.752;2023-07-02T04:30:51;11.82;;;9.15;;
10947;SDS011;5526;42.070;24.752;2023-07-02T04:33:18;10.13;;;8.70;;
10947;SDS011;5526;42.070;24.752;2023-07-02T04:35:45;9.35;;;8.35;;
10947;SDS011;5526;42.070;24.752;2023-07-02T04:38:12;9.85;;;8.70;;
10947;SDS011;5526;42.070;24.752;2023-07-02T04:40:39;9.45;;;8.50;;
10947;SDS011;5526;42.070;24.752;2023-07-02T04:43:10;8.95;;;8.15;;
10947;SDS011;5526;42.070;24.752;2023-07-02T04:45:37;8.90;;;8.00;;
10947;SDS011;5526;42.070;24.752;2023-07-02T04:48:06;9.52;;;8.45;;
10947;SDS011;5526;42.070;24.752;2023-07-02T04:50:33;9.98;;;8.90;;
10947;SDS011;5526;42.070;24.752;2023-07-02T04:53:00;8.63;;;7.70;;
10947;SDS011;5526;42.070;24.752;2023-07-02T04:55:27;9.02;;;7.47;;
10947;SDS011;5526;42.070;24.752;2023-07-02T04:57:55;8.68;;;7.78;;
10947;SDS011;5526;42.070;24.752;2023-07-02T05:00:22;8.93;;;7.95;;
10947;SDS011;5526;42.070;24.752;2023-07-02T05:02:49;8.60;;;7.82;;
10947;SDS011;5526;42.070;24.752;2023-07-02T05:05:18;10.45;;;8.25;;
10947;SDS011;5526;42.070;24.752;2023-07-02T05:07:45;10.75;;;8.63;;
10947;SDS011;5526;42.070;24.752;2023-07-02T05:10:12;10.10;;;9.07;;
10947;SDS011;5526;42.070;24.752;2023-07-02T05:12:39;10.68;;;9.57;;
10947;SDS011;5526;42.070;24.752;2023-07-02T05:15:06;10.35;;;9.38;;
10947;SDS011;5526;42.070;24.752;2023-07-02T05:17:34;10.65;;;9.73;;
10947;SDS011;5526;42.070;24.752;2023-07-02T05:20:02;13.00;;;9.93;;
10947;SDS011;5526;42.070;24.752;2023-07-02T05:22:31;11.25;;;9.88;;
10947;SDS011;5526;42.070;24.752;2023-07-02T05:24:58;10.52;;;9.48;;
10947;SDS011;5526;42.070;24.752;2023-07-02T05:27:26;9.95;;;9.00;;
10947;SDS011;5526;42.070;24.752;2023-07-02T05:29:53;10.68;;;9.70;;
10947;SDS011;5526;42.070;24.752;2023-07-02T05:32:20;9.93;;;8.93;;
10947;SDS011;5526;42.070;24.752;2023-07-02T05:34:47;11.40;;;9.93;;
10947;SDS011;5526;42.070;24.752;2023-07-02T05:37:14;10.20;;;9.10;;
10947;SDS011;5526;42.070;24.752;2023-07-02T05:39:42;12.15;;;9.90;;
10947;SDS011;5526;42.070;24.752;2023-07-02T05:42:09;10.00;;;9.10;;
10947;SDS011;5526;42.070;24.752;2023-07-02T05:44:37;10.60;;;9.60;;
10947;SDS011;5526;42.070;24.752;2023-07-02T05:47:04;10.98;;;9.18;;
10947;SDS011;5526;42.070;24.752;2023-07-02T05:49:31;11.98;;;9.40;;
10947;SDS011;5526;42.070;24.752;2023-07-02T05:51:58;10.20;;;9.15;;
10947;SDS011;5526;42.070;24.752;2023-07-02T05:54:25;10.80;;;9.80;;
10947;SDS011;5526;42.070;24.752;2023-07-02T05:56:53;10.88;;;9.82;;
10947;SDS011;5526;42.070;24.752;2023-07-02T05:59:20;11.23;;;9.93;;
10947;SDS011;5526;42.070;24.752;2023-07-02T06:01:47;12.98;;;9.65;;
10947;SDS011;5526;42.070;24.752;2023-07-02T06:04:14;10.60;;;9.13;;
10947;SDS011;5526;42.070;24.752;2023-07-02T06:06:42;10.57;;;9.48;;
10947;SDS011;5526;42.070;24.752;2023-07-02T06:09:09;10.55;;;9.57;;
10947;SDS011;5526;42.070;24.752;2023-07-02T06:11:36;11.40;;;9.40;;
10947;SDS011;5526;42.070;24.752;2023-07-02T06:14:04;10.13;;;9.10;;
10947;SDS011;5526;42.070;24.752;2023-07-02T06:16:32;11.32;;;9.80;;
10947;SDS011;5526;42.070;24.752;2023-07-02T06:18:59;11.52;;;9.82;;
10947;SDS011;5526;42.070;24.752;2023-07-02T06:21:26;10.27;;;9.13;;
10947;SDS011;5526;42.070;24.752;2023-07-02T06:23:55;11.57;;;9.65;;
10947;SDS011;5526;42.070;24.752;2023-07-02T06:26:24;10.00;;;9.10;;
10947;SDS011;5526;42.070;24.752;2023-07-02T06:28:51;10.00;;;8.98;;
10947;SDS011;5526;42.070;24.752;2023-07-02T06:31:19;10.38;;;9.27;;
10947;SDS011;5526;42.070;24.752;2023-07-02T06:33:46;11.38;;;9.45;;
10947;SDS011;5526;42.070;24.752;2023-07-02T06:36:13;9.32;;;8.43;;
10947;SDS011;5526;42.070;24.752;2023-07-02T06:38:41;9.18;;;8.25;;
10947;SDS011;5526;42.070;24.752;2023-07-02T06:41:08;10.35;;;9.02;;
10947;SDS011;5526;42.070;24.752;2023-07-02T06:43:35;8.98;;;8.18;;
10947;SDS011;5526;42.070;24.752;2023-07-02T06:46:02;9.25;;;8.35;;
10947;SDS011;5526;42.070;24.752;2023-07-02T06:48:31;12.30;;;9.75;;
10947;SDS011;5526;42.070;24.752;2023-07-02T06:50:58;12.65;;;9.13;;
10947;SDS011;5526;42.070;24.752;2023-07-02T06:53:25;10.35;;;9.35;;
10947;SDS011;5526;42.070;24.752;2023-07-02T06:55:52;9.88;;;8.98;;
10947;SDS011;5526;42.070;24.752;2023-07-02T06:58:19;10.43;;;9.35;;
10947;SDS011;5526;42.070;24.752;2023-07-02T07:00:46;10.23;;;9.23;;
10947;SDS011;5526;42.070;24.752;2023-07-02T07:03:13;11.10;;;9.73;;
10947;SDS011;5526;42.070;24.752;2023-07-02T07:05:42;9.82;;;8.75;;
10947;SDS011;5526;42.070;24.752;2023-07-02T07:08:09;9.82;;;8.07;;
10947;SDS011;5526;42.070;24.752;2023-07-02T07:10:36;13.35;;;12.07;;
10947;SDS011;5526;42.070;24.752;2023-07-02T07:13:03;13.15;;;11.75;;
10947;SDS011;5526;42.070;24.752;2023-07-02T07:15:32;11.35;;;9.20;;
10947;SDS011;5526;42.070;24.752;2023-07-02T07:18:00;12.70;;;9.40;;
10947;SDS011;5526;42.070;24.752;2023-07-02T07:20:28;10.35;;;9.25;;
10947;SDS011;5526;42.070;24.752;2023-07-02T07:22:56;10.80;;;9.35;;
10947;SDS011;5526;42.070;24.752;2023-07-02T07:25:24;12.07;;;9.60;;
10947;SDS011;5526;42.070;24.752;2023-07-02T07:27:51;9.38;;;8.48;;
10947;SDS011;5526;42.070;24.752;2023-07-02T07:30:18;13.57;;;12.38;;
10947;SDS011;5526;42.070;24.752;2023-07-02T07:32:48;10.63;;;9.63;;
10947;SDS011;5526;42.070;24.752;2023-07-02T07:35:16;9.85;;;8.50;;
10947;SDS011;5526;42.070;24.752;2023-07-02T07:37:43;9.60;;;8.27;;
10947;SDS011;5526;42.070;24.752;2023-07-02T07:40:12;9.00;;;8.10;;
10947;SDS011;5526;42.070;24.752;2023-07-02T07:42:40;9.27;;;8.38;;
10947;SDS011;5526;42.070;24.752;2023-07-02T07:45:09;8.25;;;7.55;;
10947;SDS011;5526;42.070;24.752;2023-07-02T07:47:36;8.75;;;7.88;;
10947;SDS011;5526;42.070;24.752;2023-07-02T07:50:04;8.50;;;7.70;;
10947;SDS011;5526;42.070;24.752;2023-07-02T07:52:36;8.40;;;7.70;;
10947;SDS011;5526;42.070;24.752;2023-07-02T07:55:04;8.18;;;7.47;;
10947;SDS011;5526;42.070;24.752;2023-07-02T07:57:33;8.05;;;7.32;;
10947;SDS011;5526;42.070;24.752;2023-07-02T08:00:01;8.13;;;7.32;;
10947;SDS011;5526;42.070;24.752;2023-07-02T08:02:29;8.02;;;7.32;;
10947;SDS011;5526;42.070;24.752;2023-07-02T08:04:56;8.43;;;7.72;;
10947;SDS011;5526;42.070;24.752;2023-07-02T08:07:23;7.95;;;7.30;;
10947;SDS011;5526;42.070;24.752;2023-07-02T08:09:51;8.65;;;7.85;;
10947;SDS011;5526;42.070;24.752;2023-07-02T08:12:18;7.97;;;7.25;;
10947;SDS011;5526;42.070;24.752;2023-07-02T08:14:46;8.07;;;7.28;;
10947;SDS011;5526;42.070;24.752;2023-07-02T08:17:14;7.90;;;7.10;;
10947;SDS011;5526;42.070;24.752;2023-07-02T08:19:41;7.88;;;7.10;;
10947;SDS011;5526;42.070;24.752;2023-07-02T08:22:08;7.82;;;7.13;;
10947;SDS011;5526;42.070;24.752;2023-07-02T08:24:35;7.35;;;6.72;;
10947;SDS011;5526;42.070;24.752;2023-07-02T08:27:03;8.05;;;7.35;;
10947;SDS011;5526;42.070;24.752;2023-07-02T08:29:30;7.65;;;6.95;;
10947;SDS011;5526;42.070;24.752;2023-07-02T08:31:59;7.85;;;7.13;;
10947;SDS011;5526;42.070;24.752;2023-07-02T08:34:26;7.10;;;6.40;;
10947;SDS011;5526;42.070;24.752;2023-07-02T08:36:53;7.50;;;6.70;;
10947;SDS011;5526;42.070;24.752;2023-07-02T08:39:20;7.65;;;6.97;;
10947;SDS011;5526;42.070;24.752;2023-07-02T08:41:48;7.40;;;6.70;;
10947;SDS011;5526;42.070;24.752;2023-07-02T08:44:18;7.30;;;6.60;;
10947;SDS011;5526;42.070;24.752;2023-07-02T08:46:46;7.63;;;6.82;;
10947;SDS011;5526;42.070;24.752;2023-07-02T08:49:17;7.53;;;6.93;;
10947;SDS011;5526;42.070;24.752;2023-07-02T08:51:44;6.88;;;6.28;;
10947;SDS011;5526;42.070;24.752;2023-07-02T08:54:11;7.80;;;7.22;;
10947;SDS011;5526;42.070;24.752;2023-07-02T08:56:39;7.72;;;6.88;;
10947;SDS011;5526;42.070;24.752;2023-07-02T08:59:06;7.38;;;6.68;;
10947;SDS011;5526;42.070;24.752;2023-07-02T09:01:43;8.38;;;7.22;;
10947;SDS011;5526;42.070;24.752;2023-07-02T09:04:14;8.00;;;7.30;;
10947;SDS011;5526;42.070;24.752;2023-07-02T09:06:43;8.50;;;7.70;;
10947;SDS011;5526;42.070;24.752;2023-07-02T09:09:11;7.80;;;6.97;;
10947;SDS011;5526;42.070;24.752;2023-07-02T09:11:46;7.75;;;6.93;;
10947;SDS011;5526;42.070;24.752;2023-07-02T09:14:23;8.35;;;7.57;;
10947;SDS011;5526;42.070;24.752;2023-07-02T09:17:00;8.38;;;7.55;;
10947;SDS011;5526;42.070;24.752;2023-07-02T09:19:33;8.65;;;7.88;;
10947;SDS011;5526;42.070;24.752;2023-07-02T09:22:01;7.85;;;7.25;;
10947;SDS011;5526;42.070;24.752;2023-07-02T09:24:29;8.02;;;7.32;;
10947;SDS011;5526;42.070;24.752;2023-07-02T09:26:58;7.30;;;6.70;;
10947;SDS011;5526;42.070;24.752;2023-07-02T09:29:26;8.25;;;7.28;;
10947;SDS011;5526;42.070;24.752;2023-07-02T09:31:55;7.93;;;7.32;;
10947;SDS011;5526;42.070;24.752;2023-07-02T09:34:28;7.90;;;7.07;;
10947;SDS011;5526;42.070;24.752;2023-07-02T09:36:58;7.80;;;7.13;;
10947;SDS011;5526;42.070;24.752;2023-07-02T09:39:26;7.53;;;6.93;;
10947;SDS011;5526;42.070;24.752;2023-07-02T09:41:55;8.43;;;7.72;;
10947;SDS011;5526;42.070;24.752;2023-07-02T09:44:25;7.88;;;7.18;;
10947;SDS011;5526;42.070;24.752;2023-07-02T09:46:57;7.90;;;7.15;;
10947;SDS011;5526;42.070;24.752;2023-07-02T09:49:27;7.35;;;6.75;;
10947;SDS011;5526;42.070;24.752;2023-07-02T09:51:59;6.97;;;6.43;;
10947;SDS011;5526;42.070;24.752;2023-07-02T09:54:29;7.68;;;6.97;;
10947;SDS011;5526;42.070;24.752;2023-07-02T09:56:56;6.70;;;6.10;;
10947;SDS011;5526;42.070;24.752;2023-07-02T09:59:25;6.43;;;5.93;;
10947;SDS011;5526;42.070;24.752;2023-07-02T10:01:52;8.15;;;7.35;;
10947;SDS011;5526;42.070;24.752;2023-07-02T10:04:20;7.45;;;6.85;;
10947;SDS011;5526;42.070;24.752;2023-07-02T10:06:49;7.20;;;6.60;;
10947;SDS011;5526;42.070;24.752;2023-07-02T10:09:19;6.88;;;6.38;;
10947;SDS011;5526;42.070;24.752;2023-07-02T10:11:47;6.50;;;5.95;;
10947;SDS011;5526;42.070;24.752;2023-07-02T10:14:14;7.88;;;7.07;;
10947;SDS011;5526;42.070;24.752;2023-07-02T10:16:48;6.53;;;6.03;;
10947;SDS011;5526;42.070;24.752;2023-07-02T10:19:16;7.55;;;6.70;;
10947;SDS011;5526;42.070;24.752;2023-07-02T10:21:43;7.22;;;6.60;;
10947;SDS011;5526;42.070;24.752;2023-07-02T10:24:12;7.53;;;6.82;;
10947;SDS011;5526;42.070;24.752;2023-07-02T10:26:53;7.20;;;6.50;;
10947;SDS011;5526;42.070;24.752;2023-07-02T10:29:22;7.60;;;6.88;;
10947;SDS011;5526;42.070;24.752;2023-07-02T10:31:50;7.85;;;7.10;;
10947;SDS011;5526;42.070;24.752;2023-07-02T10:34:27;8.02;;;7.05;;
10947;SDS011;5526;42.070;24.752;2023-07-02T10:36:57;8.05;;;7.38;;
10947;SDS011;5526;42.070;24.752;2023-07-02T10:39:26;7.30;;;6.60;;
10947;SDS011;5526;42.070;24.752;2023-07-02T10:42:04;7.95;;;7.20;;
10947;SDS011;5526;42.070;24.752;2023-07-02T10:44:32;7.18;;;6.57;;
10947;SDS011;5526;42.070;24.752;2023-07-02T10:46:59;6.65;;;6.15;;
10947;SDS011;5526;42.070;24.752;2023-07-02T10:49:30;8.05;;;7.35;;
10947;SDS011;5526;42.070;24.752;2023-07-02T10:51:58;8.05;;;7.28;;
10947;SDS011;5526;42.070;24.752;2023-07-02T10:54:25;9.65;;;7.97;;
10947;SDS011;5526;42.070;24.752;2023-07-02T10:56:56;10.07;;;8.80;;
10947;SDS011;5526;42.070;24.752;2023-07-02T11:23:41;9.73;;;8.80;;
10947;SDS011;5526;42.070;24.752;2023-07-02T11:26:08;9.55;;;8.63;;
10947;SDS011;5526;42.070;24.752;2023-07-02T11:28:35;9.70;;;8.85;;
10947;SDS011;5526;42.070;24.752;2023-07-02T11:31:03;9.35;;;8.43;;
10947;SDS011;5526;42.070;24.752;2023-07-02T11:33:33;9.13;;;8.15;;
10947;SDS011;5526;42.070;24.752;2023-07-02T11:36:04;9.20;;;8.35;;
10947;SDS011;5526;42.070;24.752;2023-07-02T11:38:33;9.20;;;8.40;;
10947;SDS011;5526;42.070;24.752;2023-07-02T11:41:03;9.45;;;8.50;;
10947;SDS011;5526;42.070;24.752;2023-07-02T11:43:30;10.10;;;8.50;;
10947;SDS011;5526;42.070;24.752;2023-07-02T11:45:59;9.77;;;8.75;;
10947;SDS011;5526;42.070;24.752;2023-07-02T11:48:26;10.00;;;9.00;;
10947;SDS011;5526;42.070;24.752;2023-07-02T11:50:53;9.35;;;8.45;;
10947;SDS011;5526;42.070;24.752;2023-07-02T11:53:20;19.02;;;9.05;;
10947;SDS011;5526;42.070;24.752;2023-07-02T11:55:47;10.45;;;9.55;;
10947;SDS011;5526;42.070;24.752;2023-07-02T11:58:16;11.35;;;10.30;;
10947;SDS011;5526;42.070;24.752;2023-07-02T12:00:43;9.77;;;8.98;;
10947;SDS011;5526;42.070;24.752;2023-07-02T12:03:10;10.65;;;9.65;;
10947;SDS011;5526;42.070;24.752;2023-07-02T12:05:38;10.48;;;9.57;;
10947;SDS011;5526;42.070;24.752;2023-07-02T12:08:05;10.93;;;9.38;;
10947;SDS011;5526;42.070;24.752;2023-07-02T12:10:33;10.63;;;9.63;;
10947;SDS011;5526;42.070;24.752;2023-07-02T12:13:00;9.68;;;8.63;;
10947;SDS011;5526;42.070;24.752;2023-07-02T12:15:29;9.90;;;9.00;;
10947;SDS011;5526;42.070;24.752;2023-07-02T12:17:56;9.57;;;8.70;;
10947;SDS011;5526;42.070;24.752;2023-07-02T12:20:23;8.40;;;7.70;;
10947;SDS011;5526;42.070;24.752;2023-07-02T12:22:50;7.50;;;6.90;;
10947;SDS011;5526;42.070;24.752;2023-07-02T12:25:18;8.95;;;8.18;;
10947;SDS011;5526;42.070;24.752;2023-07-02T12:27:45;8.38;;;7.60;;
10947;SDS011;5526;42.070;24.752;2023-07-02T12:30:12;8.18;;;7.47;;
10947;SDS011;5526;42.070;24.752;2023-07-02T12:32:43;9.27;;;8.48;;
10947;SDS011;5526;42.070;24.752;2023-07-02T12:35:11;8.20;;;7.55;;
10947;SDS011;5526;42.070;24.752;2023-07-02T12:37:44;8.60;;;7.90;;
10947;SDS011;5526;42.070;24.752;2023-07-02T12:40:12;9.00;;;8.20;;
10947;SDS011;5526;42.070;24.752;2023-07-02T12:42:40;9.73;;;8.95;;
10947;SDS011;5526;42.070;24.752;2023-07-02T12:45:08;9.13;;;8.30;;
10947;SDS011;5526;42.070;24.752;2023-07-02T12:47:36;8.52;;;7.82;;
10947;SDS011;5526;42.070;24.752;2023-07-02T12:50:06;8.88;;;8.07;;
10947;SDS011;5526;42.070;24.752;2023-07-02T12:52:34;9.25;;;8.45;;
10947;SDS011;5526;42.070;24.752;2023-07-02T12:55:01;9.88;;;8.82;;
10947;SDS011;5526;42.070;24.752;2023-07-02T12:57:28;9.57;;;8.70;;
10947;SDS011;5526;42.070;24.752;2023-07-02T12:59:55;9.15;;;8.45;;
10947;SDS011;5526;42.070;24.752;2023-07-02T13:02:23;9.35;;;8.43;;
10947;SDS011;5526;42.070;24.752;2023-07-02T13:04:50;8.68;;;8.00;;
10947;SDS011;5526;42.070;24.752;2023-07-02T13:07:19;9.02;;;8.02;;
10947;SDS011;5526;42.070;24.752;2023-07-02T13:09:47;8.32;;;7.53;;
10947;SDS011;5526;42.070;24.752;2023-07-02T13:12:14;7.47;;;6.82;;
10947;SDS011;5526;42.070;24.752;2023-07-02T13:14:42;8.05;;;7.45;;
10947;SDS011;5526;42.070;24.752;2023-07-02T13:17:09;8.75;;;7.97;;
10947;SDS011;5526;42.070;24.752;2023-07-02T13:19:36;8.10;;;7.40;;
10947;SDS011;5526;42.070;24.752;2023-07-02T13:22:03;8.57;;;7.88;;
10947;SDS011;5526;42.070;24.752;2023-07-02T13:24:33;8.13;;;7.43;;
10947;SDS011;5526;42.070;24.752;2023-07-02T13:27:02;8.05;;;7.35;;
10947;SDS011;5526;42.070;24.752;2023-07-02T13:29:31;8.15;;;7.35;;
10947;SDS011;5526;42.070;24.752;2023-07-02T13:31:58;8.15;;;7.45;;
10947;SDS011;5526;42.070;24.752;2023-07-02T13:34:25;8.57;;;7.88;;
10947;SDS011;5526;42.070;24.752;2023-07-02T13:36:52;7.85;;;7.25;;
10947;SDS011;5526;42.070;24.752;2023-07-02T13:39:19;8.82;;;7.88;;
10947;SDS011;5526;42.070;24.752;2023-07-02T13:41:48;8.77;;;8.07;;
10947;SDS011;5526;42.070;24.752;2023-07-02T13:44:16;8.73;;;8.02;;
10947;SDS011;5526;42.070;24.752;2023-07-02T13:46:43;8.30;;;7.60;;
10947;SDS011;5526;42.070;24.752;2023-07-02T13:49:11;9.50;;;8.70;;
10947;SDS011;5526;42.070;24.752;2023-07-02T13:51:38;8.43;;;7.72;;
10947;SDS011;5526;42.070;24.752;2023-07-02T13:54:05;8.75;;;8.05;;
10947;SDS011;5526;42.070;24.752;2023-07-02T13:56:32;8.80;;;8.00;;
10947;SDS011;5526;42.070;24.752;2023-07-02T13:59:02;8.23;;;7.55;;
10947;SDS011;5526;42.070;24.752;2023-07-02T14:01:30;8.40;;;7.65;;
10947;SDS011;5526;42.070;24.752;2023-07-02T14:03:58;8.77;;;7.90;;
10947;SDS011;5526;42.070;24.752;2023-07-02T14:06:25;9.02;;;8.18;;
10947;SDS011;5526;42.070;24.752;2023-07-02T14:08:52;7.88;;;7.18;;
10947;SDS011;5526;42.070;24.752;2023-07-02T14:11:19;8.40;;;7.78;;
10947;SDS011;5526;42.070;24.752;2023-07-02T14:13:47;8.05;;;7.38;;
10947;SDS011;5526;42.070;24.752;2023-07-02T14:16:16;10.45;;;7.70;;
10947;SDS011;5526;42.070;24.752;2023-07-02T14:18:43;9.93;;;8.50;;
10947;SDS011;5526;42.070;24.752;2023-07-02T14:21:10;9.45;;;8.25;;
10947;SDS011;5526;42.070;24.752;2023-07-02T14:23:37;10.00;;;7.82;;
10947;SDS011;5526;42.070;24.752;2023-07-02T14:26:05;7.97;;;6.97;;
10947;SDS011;5526;42.070;24.752;2023-07-02T14:28:33;7.50;;;6.80;;
10947;SDS011;5526;42.070;24.752;2023-07-02T14:31:01;9.15;;;7.22;;
10947;SDS011;5526;42.070;24.752;2023-07-02T14:33:31;7.07;;;6.47;;
10947;SDS011;5526;42.070;24.752;2023-07-02T14:36:00;7.50;;;6.88;;
10947;SDS011;5526;42.070;24.752;2023-07-02T14:38:27;9.65;;;7.13;;
10947;SDS011;5526;42.070;24.752;2023-07-02T14:40:55;7.75;;;6.95;;
10947;SDS011;5526;42.070;24.752;2023-07-02T14:43:23;7.75;;;5.95;;
10947;SDS011;5526;42.070;24.752;2023-07-02T14:45:54;8.00;;;6.70;;
10947;SDS011;5526;42.070;24.752;2023-07-02T14:48:22;6.50;;;5.90;;
10947;SDS011;5526;42.070;24.752;2023-07-02T14:50:51;6.80;;;6.20;;
10947;SDS011;5526;42.070;24.752;2023-07-02T14:53:20;6.50;;;5.90;;
10947;SDS011;5526;42.070;24.752;2023-07-02T14:55:47;6.20;;;5.70;;
10947;SDS011;5526;42.070;24.752;2023-07-02T14:58:15;6.97;;;6.47;;
10947;SDS011;5526;42.070;24.752;2023-07-02T15:00:44;6.07;;;5.57;;
10947;SDS011;5526;42.070;24.752;2023-07-02T15:03:12;7.38;;;5.88;;
10947;SDS011;5526;42.070;24.752;2023-07-02T15:05:39;5.60;;;5.10;;
10947;SDS011;5526;42.070;24.752;2023-07-02T15:08:09;5.97;;;5.45;;
10947;SDS011;5526;42.070;24.752;2023-07-02T15:10:38;5.30;;;4.85;;
10947;SDS011;5526;42.070;24.752;2023-07-02T15:13:05;6.00;;;5.50;;
10947;SDS011;5526;42.070;24.752;2023-07-02T15:15:33;6.60;;;5.97;;